sensor_id;sensor_type;location;lat;lon;timestamp;temperature;humidity
14670;DHT22;7423;48.722;9.350;2024-01-15T00:00:27;2.30;99.90
14670;DHT22;7423;48.722;9.350;2024-01-15T00:02:54;2.40;99.90
14670;DHT22;7423;48.722;9.350;2024-01-15T00:05:21;2.40;99.90
14670;DHT22;7423;48.722;9.350;2024-01-15T00:07:47;2.40;99.90
14670;DHT22;7423;48.722;9.350;2024-01-15T00:10:14;2.40;99.90
14670;DHT22;7423;48.722;9.350;2024-01-15T00:12:41;2.60;99.90
14670;DHT22;7423;48.722;9.350;2024-01-15T00:15:09;2.50;99.90
14670;DHT22;7423;48.722;9.350;2024-01-15T00:17:36;2.40;99.90
14670;DHT22;7423;48.722;9.350;2024-01-15T00:20:03;2.40;99.90
14670;DHT22;7423;48.722;9.350;2024-01-15T00:22:31;2.30;99.90
14670;DHT22;7423;48.722;9.350;2024-01-15T00:24:58;2.40;99.90
14670;DHT22;7423;48.722;9.350;2024-01-15T00:27:25;2.30;99.90
14670;DHT22;7423;48.722;9.350;2024-01-15T00:29:52;2.40;99.90
14670;DHT22;7423;48.722;9.350;2024-01-15T00:32:19;2.40;99.90
14670;DHT22;7423;48.722;9.350;2024-01-15T00:34:46;2.50;99.90
14670;DHT22;7423;48.722;9.350;2024-01-15T00:37:13;2.50;99.90
14670;DHT22;7423;48.722;9.350;2024-01-15T00:39:43;2.50;99.90
14670;DHT22;7423;48.722;9.350;2024-01-15T00:42:11;2.50;99.90
14670;DHT22;7423;48.722;9.350;2024-01-15T00:44:38;2.50;99.90
14670;DHT22;7423;48.722;9.350;2024-01-15T00:47:05;2.50;99.90
14670;DHT22;7423;48.722;9.350;2024-01-15T00:49:32;2.40;99.90
14670;DHT22;7423;48.722;9.350;2024-01-15T00:51:59;2.50;99.90
14670;DHT22;7423;48.722;9.350;2024-01-15T00:54:26;2.50;99.90
14670;DHT22;7423;48.722;9.350;2024-01-15T00:56:53;2.40;99.90
14670;DHT22;7423;48.722;9.350;2024-01-15T00:59:21;2.40;99.90
14670;DHT22;7423;48.722;9.350;2024-01-15T01:01:48;2.40;99.90
14670;DHT22;7423;48.722;9.350;2024-01-15T01:04:15;2.40;99.90
14670;DHT22;7423;48.722;9.350;2024-01-15T01:06:43;2.40;99.90
14670;DHT22;7423;48.722;9.350;2024-01-15T01:09:10;2.40;99.90
14670;DHT22;7423;48.722;9.350;2024-01-15T01:11:37;2.40;99.90
14670;DHT22;7423;48.722;9.350;2024-01-15T01:14:05;2.40;99.90
14670;DHT22;7423;48.722;9.350;2024-01-15T01:16:32;2.40;99.90
14670;DHT22;7423;48.722;9.350;2024-01-15T01:19:05;2.40;99.90
14670;DHT22;7423;48.722;9.350;2024-01-15T01:21:34;2.40;99.90
14670;DHT22;7423;48.722;9.350;2024-01-15T01:24:01;2.40;99.90
14670;DHT22;7423;48.722;9.350;2024-01-15T01:26:28;2.50;99.90
14670;DHT22;7423;48.722;9.350;2024-01-15T01:28:55;2.50;99.90
14670;DHT22;7423;48.722;9.350;2024-01-15T01:31:22;2.50;99.90
14670;DHT22;7423;48.722;9.350;2024-01-15T01:33:50;2.50;99.90
14670;DHT22;7423;48.722;9.350;2024-01-15T01:36:17;2.50;99.90
14670;DHT22;7423;48.722;9.350;2024-01-15T01:38:44;2.60;99.90
14670;DHT22;7423;48.722;9.350;2024-01-15T01:41:11;2.60;99.90
14670;DHT22;7423;48.722;9.350;2024-01-15T01:43:38;2.60;99.90
14670;DHT22;7423;48.722;9.350;2024-01-15T01:46:05;2.60;99.90
14670;DHT22;7423;48.722;9.350;2024-01-15T01:48:33;2.60;99.90
14670;DHT22;7423;48.722;9.350;2024-01-15T01:51:02;2.60;99.90
14670;DHT22;7423;48.722;9.350;2024-01-15T01:53:32;2.60;99.90
14670;DHT22;7423;48.722;9.350;2024-01-15T01:56:00;2.60;99.90
14670;DHT22;7423;48.722;9.350;2024-01-15T01:58:28;2.70;99.90
14670;DHT22;7423;48.722;9.350;2024-01-15T02:00:56;2.70;99.90
14670;DHT22;7423;48.722;9.350;2024-01-15T02:03:23;2.80;99.90
14670;DHT22;7423;48.722;9.350;2024-01-15T02:05:50;3.30;99.90
14670;DHT22;7423;48.722;9.350;2024-01-15T02:08:18;2.80;99.90
14670;DHT22;7423;48.722;9.350;2024-01-15T02:10:45;2.90;99.90
14670;DHT22;7423;48.722;9.350;2024-01-15T02:13:11;2.90;99.90
14670;DHT22;7423;48.722;9.350;2024-01-15T02:15:38;3.00;99.90
14670;DHT22;7423;48.722;9.350;2024-01-15T02:18:07;3.00;99.90
14670;DHT22;7423;48.722;9.350;2024-01-15T02:20:34;3.00;99.90
14670;DHT22;7423;48.722;9.350;2024-01-15T02:23:09;3.00;99.90
14670;DHT22;7423;48.722;9.350;2024-01-15T02:25:44;3.10;99.90
14670;DHT22;7423;48.722;9.350;2024-01-15T02:28:17;3.00;99.90
14670;DHT22;7423;48.722;9.350;2024-01-15T02:30:44;3.10;99.90
14670;DHT22;7423;48.722;9.350;2024-01-15T02:33:12;3.10;99.90
14670;DHT22;7423;48.722;9.350;2024-01-15T02:35:40;3.10;99.90
14670;DHT22;7423;48.722;9.350;2024-01-15T02:38:08;3.10;99.90
14670;DHT22;7423;48.722;9.350;2024-01-15T02:40:35;3.10;99.90
14670;DHT22;7423;48.722;9.350;2024-01-15T02:43:02;3.10;99.90
14670;DHT22;7423;48.722;9.350;2024-01-15T02:45:30;3.10;99.90
14670;DHT22;7423;48.722;9.350;2024-01-15T02:47:57;3.20;99.90
14670;DHT22;7423;48.722;9.350;2024-01-15T02:50:24;3.20;99.90
14670;DHT22;7423;48.722;9.350;2024-01-15T02:52:51;3.20;99.90
14670;DHT22;7423;48.722;9.350;2024-01-15T02:55:18;3.20;99.90
14670;DHT22;7423;48.722;9.350;2024-01-15T02:57:45;3.30;99.90
14670;DHT22;7423;48.722;9.350;2024-01-15T03:00:13;3.20;99.90
14670;DHT22;7423;48.722;9.350;2024-01-15T03:02:40;3.30;99.90
14670;DHT22;7423;48.722;9.350;2024-01-15T03:05:14;3.30;99.90
14670;DHT22;7423;48.722;9.350;2024-01-15T03:07:41;3.40;99.90
14670;DHT22;7423;48.722;9.350;2024-01-15T03:10:08;3.40;99.90
14670;DHT22;7423;48.722;9.350;2024-01-15T03:12:35;3.40;99.90
14670;DHT22;7423;48.722;9.350;2024-01-15T03:15:02;3.40;99.90
14670;DHT22;7423;48.722;9.350;2024-01-15T03:17:29;3.40;99.90
14670;DHT22;7423;48.722;9.350;2024-01-15T03:19:57;3.50;99.90
14670;DHT22;7423;48.722;9.350;2024-01-15T03:22:24;3.50;99.90
14670;DHT22;7423;48.722;9.350;2024-01-15T03:24:52;3.40;99.90
14670;DHT22;7423;48.722;9.350;2024-01-15T03:27:19;3.40;99.90
14670;DHT22;7423;48.722;9.350;2024-01-15T03:29:46;3.40;99.90
14670;DHT22;7423;48.722;9.350;2024-01-15T03:32:13;3.40;99.90
14670;DHT22;7423;48.722;9.350;2024-01-15T03:34:40;3.30;99.90
14670;DHT22;7423;48.722;9.350;2024-01-15T03:37:07;3.30;99.90
14670;DHT22;7423;48.722;9.350;2024-01-15T03:39:34;3.40;99.90
14670;DHT22;7423;48.722;9.350;2024-01-15T03:42:01;3.40;99.90
14670;DHT22;7423;48.722;9.350;2024-01-15T03:44:28;3.30;99.90
14670;DHT22;7423;48.722;9.350;2024-01-15T03:46:55;3.30;99.90
14670;DHT22;7423;48.722;9.350;2024-01-15T03:49:22;3.30;99.90
14670;DHT22;7423;48.722;9.350;2024-01-15T03:51:49;3.20;99.90
14670;DHT22;7423;48.722;9.350;2024-01-15T03:54:16;3.30;99.90
14670;DHT22;7423;48.722;9.350;2024-01-15T03:56:46;3.20;99.90
14670;DHT22;7423;48.722;9.350;2024-01-15T03:59:13;3.20;99.90
14670;DHT22;7423;48.722;9.350;2024-01-15T04:01:40;3.20;99.90
14670;DHT22;7423;48.722;9.350;2024-01-15T04:04:07;3.20;99.90
14670;DHT22;7423;48.722;9.350;2024-01-15T04:06:35;3.40;99.90
14670;DHT22;7423;48.722;9.350;2024-01-15T04:09:02;3.30;99.90
14670;DHT22;7423;48.722;9.350;2024-01-15T04:11:29;3.20;99.90
14670;DHT22;7423;48.722;9.350;2024-01-15T04:13:56;3.30;99.90
14670;DHT22;7423;48.722;9.350;2024-01-15T04:16:23;3.30;99.90
14670;DHT22;7423;48.722;9.350;2024-01-15T04:18:50;3.30;99.90
14670;DHT22;7423;48.722;9.350;2024-01-15T04:21:17;3.30;99.90
14670;DHT22;7423;48.722;9.350;2024-01-15T04:23:45;3.30;99.90
14670;DHT22;7423;48.722;9.350;2024-01-15T04:26:12;3.30;99.90
14670;DHT22;7423;48.722;9.350;2024-01-15T04:28:39;3.30;99.90
14670;DHT22;7423;48.722;9.350;2024-01-15T04:31:06;3.30;99.90
14670;DHT22;7423;48.722;9.350;2024-01-15T04:33:33;3.30;99.90
14670;DHT22;7423;48.722;9.350;2024-01-15T04:36:03;3.40;99.90
14670;DHT22;7423;48.722;9.350;2024-01-15T04:38:30;3.50;99.90
14670;DHT22;7423;48.722;9.350;2024-01-15T04:40:59;3.50;99.90
14670;DHT22;7423;48.722;9.350;2024-01-15T04:43:26;3.40;99.90
14670;DHT22;7423;48.722;9.350;2024-01-15T04:45:52;3.30;99.90
14670;DHT22;7423;48.722;9.350;2024-01-15T04:48:19;3.20;99.90
14670;DHT22;7423;48.722;9.350;2024-01-15T04:50:46;3.20;99.90
14670;DHT22;7423;48.722;9.350;2024-01-15T04:53:13;3.20;99.90
14670;DHT22;7423;48.722;9.350;2024-01-15T04:55:40;3.20;99.90
14670;DHT22;7423;48.722;9.350;2024-01-15T04:58:08;3.20;99.90
14670;DHT22;7423;48.722;9.350;2024-01-15T05:00:35;3.30;99.90
14670;DHT22;7423;48.722;9.350;2024-01-15T05:03:03;3.40;99.90
14670;DHT22;7423;48.722;9.350;2024-01-15T05:05:30;3.40;99.90
14670;DHT22;7423;48.722;9.350;2024-01-15T05:07:57;3.50;99.90
14670;DHT22;7423;48.722;9.350;2024-01-15T05:10:24;3.60;99.90
14670;DHT22;7423;48.722;9.350;2024-01-15T05:12:51;3.50;99.90
14670;DHT22;7423;48.722;9.350;2024-01-15T05:15:17;3.50;99.90
14670;DHT22;7423;48.722;9.350;2024-01-15T05:17:44;3.60;99.90
14670;DHT22;7423;48.722;9.350;2024-01-15T05:20:12;3.60;99.90
14670;DHT22;7423;48.722;9.350;2024-01-15T05:22:39;3.60;99.90
14670;DHT22;7423;48.722;9.350;2024-01-15T05:25:06;3.70;99.90
14670;DHT22;7423;48.722;9.350;2024-01-15T05:27:33;3.90;99.90
14670;DHT22;7423;48.722;9.350;2024-01-15T05:30:00;3.50;99.90
14670;DHT22;7423;48.722;9.350;2024-01-15T05:32:26;3.40;99.90
14670;DHT22;7423;48.722;9.350;2024-01-15T05:34:54;3.30;99.90
14670;DHT22;7423;48.722;9.350;2024-01-15T05:37:21;3.30;99.90
14670;DHT22;7423;48.722;9.350;2024-01-15T05:39:48;3.40;99.90
14670;DHT22;7423;48.722;9.350;2024-01-15T05:42:15;3.40;99.90
14670;DHT22;7423;48.722;9.350;2024-01-15T05:44:42;3.40;99.90
14670;DHT22;7423;48.722;9.350;2024-01-15T05:47:09;3.50;99.90
14670;DHT22;7423;48.722;9.350;2024-01-15T05:49:36;3.60;99.90
14670;DHT22;7423;48.722;9.350;2024-01-15T05:52:03;3.50;99.90
14670;DHT22;7423;48.722;9.350;2024-01-15T05:54:30;3.50;99.90
14670;DHT22;7423;48.722;9.350;2024-01-15T05:56:57;3.40;99.90
14670;DHT22;7423;48.722;9.350;2024-01-15T05:59:24;3.40;99.90
14670;DHT22;7423;48.722;9.350;2024-01-15T06:01:52;3.40;99.90
14670;DHT22;7423;48.722;9.350;2024-01-15T06:04:19;3.40;99.90
14670;DHT22;7423;48.722;9.350;2024-01-15T06:06:46;3.10;99.90
14670;DHT22;7423;48.722;9.350;2024-01-15T06:09:13;2.90;99.90
14670;DHT22;7423;48.722;9.350;2024-01-15T06:11:41;3.00;99.90
14670;DHT22;7423;48.722;9.350;2024-01-15T06:14:08;3.00;99.90
14670;DHT22;7423;48.722;9.350;2024-01-15T06:16:34;3.00;99.90
14670;DHT22;7423;48.722;9.350;2024-01-15T06:19:02;3.10;99.90
14670;DHT22;7423;48.722;9.350;2024-01-15T06:21:29;3.10;99.90
14670;DHT22;7423;48.722;9.350;2024-01-15T06:23:56;3.10;99.90
14670;DHT22;7423;48.722;9.350;2024-01-15T06:26:23;3.00;99.90
14670;DHT22;7423;48.722;9.350;2024-01-15T06:28:50;3.10;99.90
14670;DHT22;7423;48.722;9.350;2024-01-15T06:31:17;3.10;99.90
14670;DHT22;7423;48.722;9.350;2024-01-15T06:33:44;3.10;99.90
14670;DHT22;7423;48.722;9.350;2024-01-15T06:36:14;3.20;99.90
14670;DHT22;7423;48.722;9.350;2024-01-15T06:38:46;3.30;99.90
14670;DHT22;7423;48.722;9.350;2024-01-15T06:41:13;3.30;99.90
14670;DHT22;7423;48.722;9.350;2024-01-15T06:43:39;3.40;99.90
14670;DHT22;7423;48.722;9.350;2024-01-15T06:46:06;3.40;99.90
14670;DHT22;7423;48.722;9.350;2024-01-15T06:48:34;3.30;99.90
14670;DHT22;7423;48.722;9.350;2024-01-15T06:51:02;3.30;99.90
14670;DHT22;7423;48.722;9.350;2024-01-15T06:53:29;3.30;99.90
14670;DHT22;7423;48.722;9.350;2024-01-15T06:55:56;3.30;99.90
14670;DHT22;7423;48.722;9.350;2024-01-15T06:58:23;3.50;99.90
14670;DHT22;7423;48.722;9.350;2024-01-15T07:00:49;3.50;99.90
14670;DHT22;7423;48.722;9.350;2024-01-15T07:03:17;3.60;99.90
14670;DHT22;7423;48.722;9.350;2024-01-15T07:05:44;3.60;99.90
14670;DHT22;7423;48.722;9.350;2024-01-15T07:08:12;3.70;99.90
14670;DHT22;7423;48.722;9.350;2024-01-15T07:10:38;3.70;99.90
14670;DHT22;7423;48.722;9.350;2024-01-15T07:13:05;3.60;99.90
14670;DHT22;7423;48.722;9.350;2024-01-15T07:15:32;3.60;99.90
14670;DHT22;7423;48.722;9.350;2024-01-15T07:17:59;3.60;99.90
14670;DHT22;7423;48.722;9.350;2024-01-15T07:20:26;3.70;99.90
14670;DHT22;7423;48.722;9.350;2024-01-15T07:22:54;3.70;99.90
14670;DHT22;7423;48.722;9.350;2024-01-15T07:25:21;3.70;99.90
14670;DHT22;7423;48.722;9.350;2024-01-15T07:27:48;3.80;99.90
14670;DHT22;7423;48.722;9.350;2024-01-15T07:30:15;3.90;99.90
14670;DHT22;7423;48.722;9.350;2024-01-15T07:32:42;4.00;99.90
14670;DHT22;7423;48.722;9.350;2024-01-15T07:35:09;4.10;99.90
14670;DHT22;7423;48.722;9.350;2024-01-15T07:37:37;4.20;99.90
14670;DHT22;7423;48.722;9.350;2024-01-15T07:40:05;4.30;99.90
14670;DHT22;7423;48.722;9.350;2024-01-15T07:42:35;4.20;99.90
14670;DHT22;7423;48.722;9.350;2024-01-15T07:45:02;4.30;99.90
14670;DHT22;7423;48.722;9.350;2024-01-15T07:47:29;4.30;99.90
14670;DHT22;7423;48.722;9.350;2024-01-15T07:49:56;4.40;99.90
14670;DHT22;7423;48.722;9.350;2024-01-15T07:52:30;4.40;99.90
14670;DHT22;7423;48.722;9.350;2024-01-15T07:54:57;4.40;99.90
14670;DHT22;7423;48.722;9.350;2024-01-15T07:57:26;4.40;99.90
14670;DHT22;7423;48.722;9.350;2024-01-15T07:59:54;4.50;99.90
14670;DHT22;7423;48.722;9.350;2024-01-15T08:02:20;4.40;99.90
14670;DHT22;7423;48.722;9.350;2024-01-15T08:04:48;4.40;99.90
14670;DHT22;7423;48.722;9.350;2024-01-15T08:07:15;4.40;99.90
14670;DHT22;7423;48.722;9.350;2024-01-15T08:09:42;4.40;99.90
14670;DHT22;7423;48.722;9.350;2024-01-15T08:12:09;4.40;99.90
14670;DHT22;7423;48.722;9.350;2024-01-15T08:14:37;4.50;99.90
14670;DHT22;7423;48.722;9.350;2024-01-15T08:17:04;4.40;99.90
14670;DHT22;7423;48.722;9.350;2024-01-15T08:19:31;4.50;99.90
14670;DHT22;7423;48.722;9.350;2024-01-15T08:21:59;4.40;99.90
14670;DHT22;7423;48.722;9.350;2024-01-15T08:24:26;4.50;99.90
14670;DHT22;7423;48.722;9.350;2024-01-15T08:26:53;4.60;99.90
14670;DHT22;7423;48.722;9.350;2024-01-15T08:29:20;4.60;99.90
14670;DHT22;7423;48.722;9.350;2024-01-15T08:31:47;4.60;99.90
14670;DHT22;7423;48.722;9.350;2024-01-15T08:34:15;4.70;99.90
14670;DHT22;7423;48.722;9.350;2024-01-15T08:36:42;4.80;99.90
14670;DHT22;7423;48.722;9.350;2024-01-15T08:39:09;4.90;99.90
14670;DHT22;7423;48.722;9.350;2024-01-15T08:41:36;4.90;99.90
14670;DHT22;7423;48.722;9.350;2024-01-15T08:44:03;4.90;99.90
14670;DHT22;7423;48.722;9.350;2024-01-15T08:46:30;5.00;99.90
14670;DHT22;7423;48.722;9.350;2024-01-15T08:48:57;4.90;99.90
14670;DHT22;7423;48.722;9.350;2024-01-15T08:51:24;4.90;99.90
14670;DHT22;7423;48.722;9.350;2024-01-15T08:53:51;4.90;99.90
14670;DHT22;7423;48.722;9.350;2024-01-15T08:56:17;4.80;99.90
14670;DHT22;7423;48.722;9.350;2024-01-15T08:58:44;4.80;99.90
14670;DHT22;7423;48.722;9.350;2024-01-15T09:01:13;4.90;99.90
14670;DHT22;7423;48.722;9.350;2024-01-15T09:03:40;4.80;99.90
14670;DHT22;7423;48.722;9.350;2024-01-15T09:06:10;4.80;99.90
14670;DHT22;7423;48.722;9.350;2024-01-15T09:08:37;4.90;99.90
14670;DHT22;7423;48.722;9.350;2024-01-15T09:11:05;5.00;99.90
14670;DHT22;7423;48.722;9.350;2024-01-15T09:13:33;5.00;99.90
14670;DHT22;7423;48.722;9.350;2024-01-15T09:16:00;5.10;99.90
14670;DHT22;7423;48.722;9.350;2024-01-15T09:18:27;5.10;99.90
14670;DHT22;7423;48.722;9.350;2024-01-15T09:20:55;5.20;99.90
14670;DHT22;7423;48.722;9.350;2024-01-15T09:23:21;5.20;99.90
14670;DHT22;7423;48.722;9.350;2024-01-15T09:25:48;5.20;99.90
14670;DHT22;7423;48.722;9.350;2024-01-15T09:28:16;5.30;99.90
14670;DHT22;7423;48.722;9.350;2024-01-15T09:30:43;5.30;99.90
14670;DHT22;7423;48.722;9.350;2024-01-15T09:33:11;5.40;99.90
14670;DHT22;7423;48.722;9.350;2024-01-15T09:35:38;5.40;99.90
14670;DHT22;7423;48.722;9.350;2024-01-15T09:38:05;5.40;99.90
14670;DHT22;7423;48.722;9.350;2024-01-15T09:40:32;5.40;99.90
14670;DHT22;7423;48.722;9.350;2024-01-15T09:43:01;5.30;99.90
14670;DHT22;7423;48.722;9.350;2024-01-15T09:45:29;5.20;99.90
14670;DHT22;7423;48.722;9.350;2024-01-15T09:47:57;5.20;99.90
14670;DHT22;7423;48.722;9.350;2024-01-15T09:50:24;5.20;99.90
14670;DHT22;7423;48.722;9.350;2024-01-15T09:52:51;5.20;99.90
14670;DHT22;7423;48.722;9.350;2024-01-15T09:55:18;6.30;99.90
14670;DHT22;7423;48.722;9.350;2024-01-15T09:57:45;5.20;99.90
14670;DHT22;7423;48.722;9.350;2024-01-15T10:00:13;5.20;99.90
14670;DHT22;7423;48.722;9.350;2024-01-15T10:02:41;5.30;99.90
14670;DHT22;7423;48.722;9.350;2024-01-15T10:05:08;5.30;99.90
14670;DHT22;7423;48.722;9.350;2024-01-15T10:07:37;5.20;99.70
14670;DHT22;7423;48.722;9.350;2024-01-15T10:10:05;5.20;99.90
14670;DHT22;7423;48.722;9.350;2024-01-15T10:12:32;5.20;99.80
14670;DHT22;7423;48.722;9.350;2024-01-15T10:14:59;5.20;99.90
14670;DHT22;7423;48.722;9.350;2024-01-15T10:17:26;5.30;99.90
14670;DHT22;7423;48.722;9.350;2024-01-15T10:19:58;5.30;99.90
14670;DHT22;7423;48.722;9.350;2024-01-15T10:22:26;5.40;99.90
14670;DHT22;7423;48.722;9.350;2024-01-15T10:24:53;5.30;99.70
14670;DHT22;7423;48.722;9.350;2024-01-15T10:27:20;5.20;99.80
14670;DHT22;7423;48.722;9.350;2024-01-15T10:29:47;5.10;99.90
14670;DHT22;7423;48.722;9.350;2024-01-15T10:32:14;5.00;99.90
14670;DHT22;7423;48.722;9.350;2024-01-15T10:34:41;5.10;99.90
14670;DHT22;7423;48.722;9.350;2024-01-15T10:37:10;5.20;99.90
14670;DHT22;7423;48.722;9.350;2024-01-15T10:39:37;5.20;99.90
14670;DHT22;7423;48.722;9.350;2024-01-15T10:42:05;5.10;99.90
14670;DHT22;7423;48.722;9.350;2024-01-15T10:44:34;4.70;99.90
14670;DHT22;7423;48.722;9.350;2024-01-15T10:47:02;5.30;99.90
14670;DHT22;7423;48.722;9.350;2024-01-15T10:49:29;5.30;99.90
14670;DHT22;7423;48.722;9.350;2024-01-15T10:52:01;5.40;99.90
14670;DHT22;7423;48.722;9.350;2024-01-15T10:54:29;5.70;99.90
14670;DHT22;7423;48.722;9.350;2024-01-15T10:56:58;5.50;99.90
14670;DHT22;7423;48.722;9.350;2024-01-15T10:59:26;5.60;99.90
14670;DHT22;7423;48.722;9.350;2024-01-15T11:01:53;5.50;99.90
14670;DHT22;7423;48.722;9.350;2024-01-15T11:04:22;5.50;99.90
14670;DHT22;7423;48.722;9.350;2024-01-15T11:06:53;5.60;99.90
14670;DHT22;7423;48.722;9.350;2024-01-15T11:09:23;5.60;99.90
14670;DHT22;7423;48.722;9.350;2024-01-15T11:12:06;5.50;99.90
14670;DHT22;7423;48.722;9.350;2024-01-15T11:14:41;5.60;99.90
14670;DHT22;7423;48.722;9.350;2024-01-15T11:17:13;5.70;99.90
14670;DHT22;7423;48.722;9.350;2024-01-15T11:19:48;5.50;99.90
14670;DHT22;7423;48.722;9.350;2024-01-15T11:24:57;5.40;99.90
14670;DHT22;7423;48.722;9.350;2024-01-15T11:27:45;5.50;99.90
14670;DHT22;7423;48.722;9.350;2024-01-15T11:30:25;5.50;99.90
14670;DHT22;7423;48.722;9.350;2024-01-15T11:32:53;5.50;99.90
14670;DHT22;7423;48.722;9.350;2024-01-15T11:35:20;5.50;99.90
14670;DHT22;7423;48.722;9.350;2024-01-15T11:38:07;5.50;99.90
14670;DHT22;7423;48.722;9.350;2024-01-15T11:40:38;5.50;99.90
14670;DHT22;7423;48.722;9.350;2024-01-15T11:43:06;5.40;99.90
14670;DHT22;7423;48.722;9.350;2024-01-15T11:45:33;5.40;99.90
14670;DHT22;7423;48.722;9.350;2024-01-15T11:48:14;5.50;99.90
14670;DHT22;7423;48.722;9.350;2024-01-15T11:50:49;5.50;99.90
14670;DHT22;7423;48.722;9.350;2024-01-15T11:53:32;5.50;99.90
14670;DHT22;7423;48.722;9.350;2024-01-15T11:56:08;5.50;99.90
14670;DHT22;7423;48.722;9.350;2024-01-15T11:58:41;5.40;99.90
14670;DHT22;7423;48.722;9.350;2024-01-15T12:01:08;5.60;99.90
14670;DHT22;7423;48.722;9.350;2024-01-15T12:03:35;5.60;99.90
14670;DHT22;7423;48.722;9.350;2024-01-15T12:06:05;5.50;99.90
14670;DHT22;7423;48.722;9.350;2024-01-15T12:08:33;5.40;99.90
14670;DHT22;7423;48.722;9.350;2024-01-15T12:11:09;5.40;99.90
14670;DHT22;7423;48.722;9.350;2024-01-15T12:13:38;5.50;99.90
14670;DHT22;7423;48.722;9.350;2024-01-15T12:16:05;5.50;99.90
14670;DHT22;7423;48.722;9.350;2024-01-15T12:18:32;5.40;99.90
14670;DHT22;7423;48.722;9.350;2024-01-15T12:20:59;5.40;99.90
14670;DHT22;7423;48.722;9.350;2024-01-15T12:23:26;6.20;99.90
14670;DHT22;7423;48.722;9.350;2024-01-15T12:25:54;5.20;99.90
14670;DHT22;7423;48.722;9.350;2024-01-15T12:28:21;5.00;99.90
14670;DHT22;7423;48.722;9.350;2024-01-15T12:30:49;4.90;99.90
14670;DHT22;7423;48.722;9.350;2024-01-15T12:33:18;5.00;99.90
14670;DHT22;7423;48.722;9.350;2024-01-15T12:35:46;5.00;99.90
14670;DHT22;7423;48.722;9.350;2024-01-15T12:38:13;4.90;99.90
14670;DHT22;7423;48.722;9.350;2024-01-15T12:40:43;4.90;99.90
14670;DHT22;7423;48.722;9.350;2024-01-15T12:43:13;4.90;99.90
14670;DHT22;7423;48.722;9.350;2024-01-15T12:45:41;4.90;99.90
14670;DHT22;7423;48.722;9.350;2024-01-15T12:48:09;5.00;99.90
14670;DHT22;7423;48.722;9.350;2024-01-15T12:50:37;4.90;99.90
14670;DHT22;7423;48.722;9.350;2024-01-15T12:53:04;5.00;99.90
14670;DHT22;7423;48.722;9.350;2024-01-15T12:55:31;4.90;99.90
14670;DHT22;7423;48.722;9.350;2024-01-15T12:57:58;5.00;99.90
14670;DHT22;7423;48.722;9.350;2024-01-15T13:00:25;4.90;99.90
14670;DHT22;7423;48.722;9.350;2024-01-15T13:02:53;4.80;99.90
14670;DHT22;7423;48.722;9.350;2024-01-15T13:05:22;4.90;99.90
14670;DHT22;7423;48.722;9.350;2024-01-15T13:07:50;5.00;99.90
14670;DHT22;7423;48.722;9.350;2024-01-15T13:10:17;4.80;99.90
14670;DHT22;7423;48.722;9.350;2024-01-15T13:12:43;4.80;99.90
14670;DHT22;7423;48.722;9.350;2024-01-15T13:15:10;4.90;99.90
14670;DHT22;7423;48.722;9.350;2024-01-15T13:17:40;4.80;99.90
14670;DHT22;7423;48.722;9.350;2024-01-15T13:20:08;4.00;99.90
14670;DHT22;7423;48.722;9.350;2024-01-15T13:22:38;4.90;99.90
14670;DHT22;7423;48.722;9.350;2024-01-15T13:25:07;4.90;99.90
14670;DHT22;7423;48.722;9.350;2024-01-15T13:27:35;5.00;99.90
14670;DHT22;7423;48.722;9.350;2024-01-15T13:30:05;5.00;99.90
14670;DHT22;7423;48.722;9.350;2024-01-15T13:32:34;4.90;99.90
14670;DHT22;7423;48.722;9.350;2024-01-15T13:35:02;4.90;99.90
14670;DHT22;7423;48.722;9.350;2024-01-15T13:37:32;4.90;99.90
14670;DHT22;7423;48.722;9.350;2024-01-15T13:39:59;4.90;99.90
14670;DHT22;7423;48.722;9.350;2024-01-15T13:42:26;4.80;99.90
14670;DHT22;7423;48.722;9.350;2024-01-15T13:44:54;4.90;99.90
14670;DHT22;7423;48.722;9.350;2024-01-15T13:47:21;4.90;99.90
14670;DHT22;7423;48.722;9.350;2024-01-15T13:49:48;5.00;99.90
14670;DHT22;7423;48.722;9.350;2024-01-15T13:52:16;5.00;99.90
14670;DHT22;7423;48.722;9.350;2024-01-15T13:54:42;4.90;99.90
14670;DHT22;7423;48.722;9.350;2024-01-15T13:57:16;5.10;99.90
14670;DHT22;7423;48.722;9.350;2024-01-15T13:59:45;5.20;99.90
14670;DHT22;7423;48.722;9.350;2024-01-15T14:02:13;5.10;99.90
14670;DHT22;7423;48.722;9.350;2024-01-15T14:04:46;5.20;99.90
14670;DHT22;7423;48.722;9.350;2024-01-15T14:07:14;5.30;99.90
14670;DHT22;7423;48.722;9.350;2024-01-15T14:09:42;5.30;99.90
14670;DHT22;7423;48.722;9.350;2024-01-15T14:12:08;5.20;99.90
14670;DHT22;7423;48.722;9.350;2024-01-15T14:14:35;5.30;99.90
14670;DHT22;7423;48.722;9.350;2024-01-15T14:17:02;5.30;99.90
14670;DHT22;7423;48.722;9.350;2024-01-15T14:19:30;5.30;99.90
14670;DHT22;7423;48.722;9.350;2024-01-15T14:21:57;5.30;99.90
14670;DHT22;7423;48.722;9.350;2024-01-15T14:24:24;5.30;99.90
14670;DHT22;7423;48.722;9.350;2024-01-15T14:26:51;5.40;99.90
14670;DHT22;7423;48.722;9.350;2024-01-15T14:29:18;5.40;99.90
14670;DHT22;7423;48.722;9.350;2024-01-15T14:31:48;5.40;99.90
14670;DHT22;7423;48.722;9.350;2024-01-15T14:34:15;5.30;99.90
14670;DHT22;7423;48.722;9.350;2024-01-15T14:36:44;5.30;99.90
14670;DHT22;7423;48.722;9.350;2024-01-15T14:39:12;5.30;99.90
14670;DHT22;7423;48.722;9.350;2024-01-15T14:41:39;5.30;99.90
14670;DHT22;7423;48.722;9.350;2024-01-15T14:44:06;5.30;99.90
14670;DHT22;7423;48.722;9.350;2024-01-15T14:46:33;5.30;99.90
14670;DHT22;7423;48.722;9.350;2024-01-15T14:49:00;5.30;99.90
14670;DHT22;7423;48.722;9.350;2024-01-15T14:51:27;5.30;99.90
14670;DHT22;7423;48.722;9.350;2024-01-15T14:53:54;5.30;99.90
14670;DHT22;7423;48.722;9.350;2024-01-15T14:56:21;5.20;99.90
14670;DHT22;7423;48.722;9.350;2024-01-15T14:58:48;5.00;99.90
14670;DHT22;7423;48.722;9.350;2024-01-15T15:01:15;5.10;99.90
14670;DHT22;7423;48.722;9.350;2024-01-15T15:03:43;5.10;99.90
14670;DHT22;7423;48.722;9.350;2024-01-15T15:06:11;5.20;99.90
14670;DHT22;7423;48.722;9.350;2024-01-15T15:08:39;5.30;99.90
14670;DHT22;7423;48.722;9.350;2024-01-15T15:11:06;5.30;99.90
14670;DHT22;7423;48.722;9.350;2024-01-15T15:13:33;5.30;99.90
14670;DHT22;7423;48.722;9.350;2024-01-15T15:16:11;5.20;99.90
14670;DHT22;7423;48.722;9.350;2024-01-15T15:18:41;5.30;99.90
14670;DHT22;7423;48.722;9.350;2024-01-15T15:21:10;5.30;99.90
14670;DHT22;7423;48.722;9.350;2024-01-15T15:23:38;5.20;99.90
14670;DHT22;7423;48.722;9.350;2024-01-15T15:26:08;5.20;99.90
14670;DHT22;7423;48.722;9.350;2024-01-15T15:28:35;5.20;99.90
14670;DHT22;7423;48.722;9.350;2024-01-15T15:31:06;5.20;99.90
14670;DHT22;7423;48.722;9.350;2024-01-15T15:33:35;5.00;99.90
14670;DHT22;7423;48.722;9.350;2024-01-15T15:36:04;5.20;99.90
14670;DHT22;7423;48.722;9.350;2024-01-15T15:38:32;5.30;99.90
14670;DHT22;7423;48.722;9.350;2024-01-15T15:41:00;5.30;99.90
14670;DHT22;7423;48.722;9.350;2024-01-15T15:43:27;5.30;99.90
14670;DHT22;7423;48.722;9.350;2024-01-15T15:45:54;5.20;99.90
14670;DHT22;7423;48.722;9.350;2024-01-15T15:48:22;5.20;99.90
14670;DHT22;7423;48.722;9.350;2024-01-15T15:50:50;4.90;99.90
14670;DHT22;7423;48.722;9.350;2024-01-15T15:53:22;4.90;99.90
14670;DHT22;7423;48.722;9.350;2024-01-15T15:55:49;5.00;99.90
14670;DHT22;7423;48.722;9.350;2024-01-15T15:58:16;5.00;99.90
14670;DHT22;7423;48.722;9.350;2024-01-15T16:00:42;5.00;99.90
14670;DHT22;7423;48.722;9.350;2024-01-15T16:03:09;5.00;99.90
14670;DHT22;7423;48.722;9.350;2024-01-15T16:05:36;4.90;99.90
14670;DHT22;7423;48.722;9.350;2024-01-15T16:08:17;4.80;99.90